Terminal Aerodrome Forecast
Issued by NWS

Home | Current Version | Previous Version | Text Only | Print | Product List | Glossary On
Versions: 1 2 3 4 5 6 7 8 9 10 11 12
549
FTUS42 KMLB 231725
TAFFPR
TAF
KFPR 231725Z 2318/2418 18008KT P6SM VCTS SCT035CB SCT080 BKN120
      TEMPO 2319/2321 3SM TSRA BKN035CB BKN080
     FM232200 VRB04KT P6SM VCSH SCT040 BKN100
     FM240200 VRB02KT P6SM FEW040 BKN200
     FM241400 21006KT P6SM SCT035 SCT250=

USA.gov is the U.S. government's official web portal to all federal, state and local government web resources and services.